createdAt,value
2022-08-19T00:00:06.628Z,100320.42
2022-08-19T00:01:10.988Z,100319.17
2022-08-19T00:02:15.331Z,100318.23
2022-08-19T00:03:19.691Z,100319.08
2022-08-19T00:04:24.204Z,100320.42
2022-08-19T00:05:28.878Z,100318.13
2022-08-19T00:06:33.207Z,100318.23
2022-08-19T00:07:37.544Z,100317.81
2022-08-19T00:08:43.986Z,100317.28
2022-08-19T00:09:48.336Z,100321.78
2022-08-19T00:10:52.685Z,100317.19
2022-08-19T00:11:57.017Z,100320.42
2022-08-19T00:13:01.391Z,100321.34
2022-08-19T00:14:05.745Z,100321.66
2022-08-19T00:15:13.271Z,100326.33
2022-08-19T00:16:17.618Z,100326.87
2022-08-19T00:17:29.709Z,100323.75
2022-08-19T00:18:34.059Z,100328.42
2022-08-19T00:19:38.377Z,100324.27
2022-08-19T00:20:42.700Z,100324.36
2022-08-19T00:21:47.022Z,100323.44
2022-08-19T00:22:51.576Z,100322.09
2022-08-19T00:23:56.340Z,100316.37
2022-08-19T00:25:03.179Z,100319.68
2022-08-19T00:26:08.261Z,100326.14
2022-08-19T00:27:27.078Z,100323.88
2022-08-19T00:28:31.423Z,100328.44
2022-08-19T00:29:39.413Z,100333.44
2022-08-19T00:30:43.765Z,100331.98
2022-08-19T00:31:50.649Z,100329.79
2022-08-19T00:32:55.415Z,100323.43
2022-08-19T00:33:59.770Z,100331.55
2022-08-19T00:35:04.111Z,100332.09
2022-08-19T00:36:08.479Z,100332.09
2022-08-19T00:37:12.797Z,100324.91
2022-08-19T00:38:37.869Z,100325.73
2022-08-19T00:39:42.643Z,100313.95
2022-08-19T00:40:47.288Z,100310.94
2022-08-19T00:41:51.639Z,100319.19
2022-08-19T00:42:55.987Z,100313.64
2022-08-19T00:44:00.313Z,100315
2022-08-19T00:45:04.658Z,100317.3
2022-08-19T00:46:09.051Z,100320.41
2022-08-19T00:47:15.180Z,100321.36
2022-08-19T00:48:22.380Z,100318.66
2022-08-19T00:49:26.954Z,100317.39
2022-08-19T00:50:31.280Z,100310.53
2022-08-19T00:51:35.662Z,100308.77
2022-08-19T00:52:40.022Z,100310.63
2022-08-19T00:53:44.364Z,100306.7
2022-08-19T00:54:53.363Z,100306.7
2022-08-19T00:55:57.756Z,100301.7
2022-08-19T00:57:02.094Z,100303.99
2022-08-19T00:58:06.443Z,100303.99
2022-08-19T00:59:10.824Z,100304.5
2022-08-19T01:00:15.232Z,100303.55
2022-08-19T01:01:19.701Z,100298.58
2022-08-19T01:02:24.194Z,100299.5
2022-08-19T01:03:28.546Z,100290.87
2022-08-19T01:05:00.326Z,100296.38
2022-08-19T01:06:04.661Z,100294.92
2022-08-19T01:07:09.021Z,100290.97
2022-08-19T01:08:23.093Z,100285.96
2022-08-19T01:09:27.548Z,100282.75
2022-08-19T01:10:37.493Z,100277.84
2022-08-19T01:11:41.883Z,100277.34
2022-08-19T01:12:46.269Z,100281.39
2022-08-19T01:13:51.423Z,100287.31
2022-08-19T01:14:55.768Z,100280.14
2022-08-19T01:16:02.393Z,100286.71
2022-08-19T01:17:06.751Z,100283.47
2022-08-19T01:18:11.117Z,100283.47
2022-08-19T01:19:15.469Z,100281.61
2022-08-19T01:20:19.802Z,100279.81
2022-08-19T01:21:24.110Z,100279.5
2022-08-19T01:22:34.277Z,100280.05
2022-08-19T01:23:38.632Z,100280.14
2022-08-19T01:24:50.593Z,100274.73
2022-08-19T01:25:59.997Z,100276.18
2022-08-19T01:27:04.332Z,100275.58
2022-08-19T01:28:15.307Z,100270.67
2022-08-19T01:29:37.618Z,100268.91
2022-08-19T01:30:50.995Z,100271.61
2022-08-19T01:31:55.603Z,100266.4
2022-08-19T01:32:59.932Z,100257.77
2022-08-19T01:34:04.303Z,100263.69
2022-08-19T01:35:08.642Z,100260.79
2022-08-19T01:36:13.016Z,100261.2
2022-08-19T01:37:28.086Z,100262.23
2022-08-19T01:38:32.870Z,100259.03
2022-08-19T01:39:47.501Z,100259.12
2022-08-19T01:40:51.944Z,100251.41
2022-08-19T01:41:56.398Z,100256.52
2022-08-19T01:43:00.816Z,100249.75
2022-08-19T01:44:19.682Z,100250.7
2022-08-19T01:45:24.037Z,100253.41
2022-08-19T01:46:29.747Z,100255.7
2022-08-19T01:47:34.081Z,100246.73
2022-08-19T01:48:38.431Z,100242.68
2022-08-19T01:49:42.785Z,100246.23
2022-08-19T01:50:47.142Z,100249.88
2022-08-19T01:51:51.530Z,100243.12
2022-08-19T01:53:07.603Z,100239.47
2022-08-19T01:54:12.069Z,100244.47
2022-08-19T01:55:16.418Z,100238.21
2022-08-19T01:56:20.808Z,100234.16
2022-08-19T01:57:25.174Z,100237.27
2022-08-19T01:58:29.551Z,100239.06
2022-08-19T01:59:33.890Z,100241.23
2022-08-19T02:00:38.242Z,100233.11
2022-08-19T02:01:42.687Z,100238.52
2022-08-19T02:02:47.167Z,100239.64
2022-08-19T02:03:51.588Z,100241.13
2022-08-19T02:05:01.457Z,100244.34
2022-08-19T02:06:05.825Z,100245.7
2022-08-19T02:07:10.341Z,100252.05
2022-08-19T02:08:14.685Z,100244.88
2022-08-19T02:09:19.022Z,100244.03
2022-08-19T02:10:23.403Z,100244.75
2022-08-19T02:11:27.737Z,100237.98
2022-08-19T02:12:32.217Z,100233.11
2022-08-19T02:13:37.204Z,100240.41
2022-08-19T02:14:41.524Z,100236.35
2022-08-19T02:15:45.830Z,100236.76
2022-08-19T02:16:50.181Z,100236.76
2022-08-19T02:17:54.538Z,100236.05
2022-08-19T02:18:58.880Z,100236.45
2022-08-19T02:20:03.231Z,100234.25
2022-08-19T02:21:07.584Z,100225.72
2022-08-19T02:22:11.936Z,100226.77
2022-08-19T02:23:17.240Z,100227.72
2022-08-19T02:24:21.710Z,100230.02
2022-08-19T02:25:26.178Z,100227.62
2022-08-19T02:26:30.538Z,100224.16
2022-08-19T02:27:34.886Z,100223.66
2022-08-19T02:28:39.247Z,100218.65
2022-08-19T02:29:43.622Z,100217.94
2022-08-19T02:30:47.975Z,100215.63
2022-08-19T02:31:52.360Z,100212.11
2022-08-19T02:32:57.503Z,100204.91
2022-08-19T02:34:02.485Z,100208.05
2022-08-19T02:35:13.465Z,100206.16
2022-08-19T02:36:22.221Z,100213.47
2022-08-19T02:37:29.232Z,100210.32
2022-08-19T02:38:38.391Z,100204.19
2022-08-19T02:39:42.839Z,100202.94
2022-08-19T02:40:47.267Z,100206.59
2022-08-19T02:41:51.595Z,100207.44
2022-08-19T02:42:56.089Z,100210.14
2022-08-19T02:44:31.760Z,100205.55
2022-08-19T02:45:36.294Z,100207.64
2022-08-19T02:46:45.208Z,100201.1
2022-08-19T02:47:49.542Z,100208.68
2022-08-19T02:48:53.879Z,100207.87
2022-08-19T02:49:58.213Z,100205.26
2022-08-19T02:51:02.582Z,100204.22
2022-08-19T02:52:06.911Z,100203.8
2022-08-19T02:53:11.242Z,100198.19
2022-08-19T02:54:17.178Z,100198.59
2022-08-19T02:55:21.525Z,100200.99
2022-08-19T02:56:25.865Z,100197.34
2022-08-19T02:57:30.205Z,100191.02
2022-08-19T02:58:34.547Z,100195.38
2022-08-19T02:59:38.885Z,100193.48
2022-08-19T03:00:43.354Z,100199.31
2022-08-19T03:01:47.800Z,100201.1
2022-08-19T03:02:52.308Z,100193.9
2022-08-19T03:03:56.968Z,100194.44
2022-08-19T03:05:01.312Z,100201.4
2022-08-19T03:06:05.690Z,100196.83
2022-08-19T03:07:12.338Z,100207.97
2022-08-19T03:08:16.679Z,100209.31
2022-08-19T03:09:21.328Z,100213.78
2022-08-19T03:10:25.652Z,100203.27
2022-08-19T03:11:30.042Z,100212.02
2022-08-19T03:12:34.397Z,100200.25
2022-08-19T03:13:38.764Z,100199.84
2022-08-19T03:14:43.103Z,100199.31
2022-08-19T03:15:47.449Z,100195.69
2022-08-19T03:16:51.850Z,100190.59
2022-08-19T03:17:58.365Z,100185.78
2022-08-19T03:19:02.779Z,100184.33
2022-08-19T03:20:07.106Z,100180.27
2022-08-19T03:21:13.551Z,100186.63
2022-08-19T03:22:17.956Z,100184.64
2022-08-19T03:23:24.139Z,100190.05
2022-08-19T03:24:28.522Z,100191.94
2022-08-19T03:25:32.881Z,100192.85
2022-08-19T03:26:37.235Z,100203.27
2022-08-19T03:27:41.627Z,100201.7
2022-08-19T03:28:58.494Z,100203.37
2022-08-19T03:30:12.544Z,100200.89
2022-08-19T03:31:52.353Z,100197.23
2022-08-19T03:32:58.551Z,100195.25
2022-08-19T03:34:04.703Z,100194.84
2022-08-19T03:35:13.620Z,100190.38
2022-08-19T03:36:17.976Z,100192.98
2022-08-19T03:37:22.332Z,100192.14
2022-08-19T03:38:26.683Z,100192.67
2022-08-19T03:39:31.173Z,100190.69
2022-08-19T03:40:35.674Z,100189.64
2022-08-19T03:41:48.365Z,100183.82
2022-08-19T03:42:52.910Z,100193.3
2022-08-19T03:44:00.725Z,100195.77
2022-08-19T03:45:05.105Z,100198.78
2022-08-19T03:46:09.458Z,100195.57
2022-08-19T03:47:13.829Z,100193.37
2022-08-19T03:48:18.204Z,100187.02
2022-08-19T03:49:29.217Z,100184.3
2022-08-19T03:50:33.671Z,100184.13
2022-08-19T03:51:38.021Z,100190.16
2022-08-19T03:52:48.009Z,100183.06
2022-08-19T03:53:52.386Z,100181.91
2022-08-19T03:54:56.727Z,100184.3
2022-08-19T03:56:01.125Z,100183.9
2022-08-19T03:57:05.444Z,100187.76
2022-08-19T03:58:09.784Z,100189.21
2022-08-19T03:59:14.139Z,100191.07
2022-08-19T04:00:18.713Z,100196.19
2022-08-19T04:01:36.238Z,100192.63
2022-08-19T04:02:40.671Z,100193.58
2022-08-19T04:03:45.020Z,100186.41
2022-08-19T04:04:49.341Z,100192.53
2022-08-19T04:05:53.733Z,100187.76
2022-08-19T04:06:58.158Z,100189.52
2022-08-19T04:08:02.522Z,100188.14
2022-08-19T04:09:06.879Z,100189.19
2022-08-19T04:10:11.767Z,100189.29
2022-08-19T04:11:18.721Z,100190.33
2022-08-19T04:12:23.155Z,100187.94
2022-08-19T04:13:27.524Z,100198.88
2022-08-19T04:14:31.882Z,100199.09
2022-08-19T04:15:36.218Z,100209.03
2022-08-19T04:16:40.547Z,100214.86
2022-08-19T04:17:44.941Z,100215.05
2022-08-19T04:18:49.297Z,100220.8
2022-08-19T04:19:53.653Z,100220.67
2022-08-19T04:20:58.045Z,100223.49
2022-08-19T04:22:02.381Z,100220.69
2022-08-19T04:23:06.775Z,100224.05
2022-08-19T04:24:11.150Z,100218.95
2022-08-19T04:25:15.509Z,100226.85
2022-08-19T04:26:19.889Z,100216.16
2022-08-19T04:27:24.241Z,100214.09
2022-08-19T04:28:28.620Z,100215.63
2022-08-19T04:29:32.955Z,100215.84
2022-08-19T04:30:37.312Z,100213.47
2022-08-19T04:31:41.686Z,100211.58
2022-08-19T04:32:46.054Z,100216.59
2022-08-19T04:33:50.557Z,100206.09
2022-08-19T04:35:16.589Z,100208.8
2022-08-19T04:36:27.769Z,100203.17
2022-08-19T04:37:36.537Z,100197.79
2022-08-19T04:38:40.880Z,100203.3
2022-08-19T04:39:45.368Z,100202.76
2022-08-19T04:40:49.901Z,100206.92
2022-08-19T04:41:54.297Z,100211.5
2022-08-19T04:42:58.668Z,100219.09
2022-08-19T04:44:05.596Z,100216.37
2022-08-19T04:45:13.239Z,100219.91
2022-08-19T04:46:51.083Z,100227.84
2022-08-19T04:48:26.946Z,100228.04
2022-08-19T04:49:31.897Z,100217.34
2022-08-19T04:50:36.244Z,100213.8
2022-08-19T04:51:40.590Z,100207.67
2022-08-19T04:52:44.953Z,100212.25
2022-08-19T04:53:49.340Z,100201.11
2022-08-19T04:54:53.670Z,100203.74
2022-08-19T04:55:58.889Z,100197.28
2022-08-19T04:57:03.223Z,100195.08
2022-08-19T04:58:08.961Z,100191.04
2022-08-19T04:59:13.318Z,100188.23
2022-08-19T05:00:17.667Z,100190.3
2022-08-19T05:01:22.235Z,100192.05
2022-08-19T05:02:26.716Z,100192.19
2022-08-19T05:03:31.702Z,100194.14
2022-08-19T05:04:36.103Z,100199.34
2022-08-19T05:05:46.353Z,100190.06
2022-08-19T05:06:50.701Z,100198.39
2022-08-19T05:07:55.047Z,100201.41
2022-08-19T05:08:59.828Z,100203.79
2022-08-19T05:10:04.306Z,100200.26
2022-08-19T05:11:09.757Z,100200.97
2022-08-19T05:12:17.818Z,100198.37
2022-08-19T05:13:22.172Z,100203.58
2022-08-19T05:14:26.528Z,100208.12
2022-08-19T05:15:30.899Z,100208.03
2022-08-19T05:16:35.262Z,100209.17
2022-08-19T05:17:40.392Z,100207.21
2022-08-19T05:18:44.720Z,100211.27
2022-08-19T05:19:49.096Z,100200.67
2022-08-19T05:20:53.552Z,100205.89
2022-08-19T05:21:57.908Z,100207.86
2022-08-19T05:23:12.742Z,100212.23
2022-08-19T05:24:26.510Z,100200.78
2022-08-19T05:25:34.765Z,100202.09
2022-08-19T05:26:39.138Z,100205.75
2022-08-19T05:27:43.499Z,100201.8
2022-08-19T05:28:49.535Z,100199.1
2022-08-19T05:29:58.273Z,100191.41
2022-08-19T05:31:02.635Z,100190.06
2022-08-19T05:32:06.990Z,100190.67
2022-08-19T05:33:11.353Z,100188.89
2022-08-19T05:34:21.232Z,100186.8
2022-08-19T05:35:25.614Z,100188.91
2022-08-19T05:36:29.962Z,100195.97
2022-08-19T05:37:34.354Z,100189.62
2022-08-19T05:38:38.722Z,100185.45
2022-08-19T05:39:43.240Z,100187.02
2022-08-19T05:40:50.799Z,100181.02
2022-08-19T05:41:55.160Z,100173.02
2022-08-19T05:42:59.545Z,100173.77
2022-08-19T05:44:04.396Z,100175.43
2022-08-19T05:45:08.811Z,100170.62
2022-08-19T05:46:13.168Z,100168.54
2022-08-19T05:47:17.542Z,100164.77
2022-08-19T05:48:23.409Z,100173.7
2022-08-19T05:49:27.757Z,100171.75
2022-08-19T05:50:32.125Z,100177.16
2022-08-19T05:51:36.498Z,100178.82
2022-08-19T05:52:51.062Z,100177.89
2022-08-19T05:53:55.455Z,100178.61
2022-08-19T05:54:59.801Z,100177.97
2022-08-19T05:56:04.195Z,100182.55
2022-08-19T05:57:09.883Z,100178.69
2022-08-19T05:58:17.663Z,100176.84
2022-08-19T05:59:26.577Z,100178.23
2022-08-19T06:00:30.953Z,100183.42
2022-08-19T06:01:35.304Z,100182.58
2022-08-19T06:02:39.768Z,100182.48
2022-08-19T06:03:44.207Z,100183.63
2022-08-19T06:04:48.549Z,100179.89
2022-08-19T06:05:53.361Z,100185.69
2022-08-19T06:06:57.737Z,100181.77
2022-08-19T06:08:02.077Z,100181.98
2022-08-19T06:09:06.415Z,100181.14
2022-08-19T06:10:10.794Z,100180.12
2022-08-19T06:11:15.241Z,100174.06
2022-08-19T06:12:20.173Z,100175.66
2022-08-19T06:13:24.608Z,100169
2022-08-19T06:14:29.434Z,100173.47
2022-08-19T06:15:33.791Z,100172.34
2022-08-19T06:16:38.147Z,100174.75
2022-08-19T06:17:42.475Z,100167.45
2022-08-19T06:18:46.840Z,100162.03
2022-08-19T06:19:51.196Z,100159.45
2022-08-19T06:20:57.301Z,100159.73
2022-08-19T06:22:02.025Z,100168.27
2022-08-19T06:23:06.729Z,100172.22
2022-08-19T06:24:11.095Z,100165.68
2022-08-19T06:25:15.436Z,100175.04
2022-08-19T06:26:19.814Z,100179.09
2022-08-19T06:27:24.223Z,100175.1
2022-08-19T06:28:28.621Z,100177.5
2022-08-19T06:29:32.993Z,100175.72
2022-08-19T06:30:37.368Z,100181.96
2022-08-19T06:31:43.118Z,100181.77
2022-08-19T06:32:47.466Z,100184.24
2022-08-19T06:33:51.842Z,100182.61
2022-08-19T06:34:56.422Z,100176.88
2022-08-19T06:36:00.839Z,100176.65
2022-08-19T06:37:05.221Z,100173.23
2022-08-19T06:38:09.605Z,100175.09
2022-08-19T06:39:13.968Z,100173.51
2022-08-19T06:40:18.518Z,100173.58
2022-08-19T06:41:23.016Z,100172.09
2022-08-19T06:42:27.340Z,100177.91
2022-08-19T06:43:31.741Z,100184.05
2022-08-19T06:44:40.600Z,100180.89
2022-08-19T06:45:54.261Z,100180.05
2022-08-19T06:47:00.108Z,100182.56
2022-08-19T06:48:12.831Z,100179.34
2022-08-19T06:49:18.172Z,100186.12
2022-08-19T06:50:26.047Z,100184.11
2022-08-19T06:52:46.014Z,100193.88
2022-08-19T06:54:56.970Z,100201.98
2022-08-19T06:56:04.408Z,100200.86
2022-08-19T06:57:08.778Z,100198.35
2022-08-19T06:58:13.111Z,100196.19
2022-08-19T06:59:17.855Z,100198.98
2022-08-19T07:00:22.336Z,100202.31
2022-08-19T07:01:26.777Z,100200.45
2022-08-19T07:02:31.144Z,100203.05
2022-08-19T07:03:38.360Z,100205.24
2022-08-19T07:04:44.766Z,100207.95
2022-08-19T07:05:49.556Z,100207.1
2022-08-19T07:06:56.243Z,100200.26
2022-08-19T07:08:06.017Z,100206.38
2022-08-19T07:09:10.379Z,100204.09
2022-08-19T07:10:18.092Z,100204.39
2022-08-19T07:11:25.562Z,100204.8
2022-08-19T07:12:33.155Z,100208.36
2022-08-19T07:13:39.200Z,100204.28
2022-08-19T07:14:43.545Z,100202.63
2022-08-19T07:15:47.936Z,100202.84
2022-08-19T07:16:52.436Z,100208.97
2022-08-19T07:17:56.834Z,100213.87
2022-08-19T07:19:15.514Z,100223.96
2022-08-19T07:20:22.287Z,100229.99
2022-08-19T07:21:38.580Z,100225.09
2022-08-19T07:22:42.951Z,100224.17
2022-08-19T07:23:47.406Z,100229.23
2022-08-19T07:24:52.662Z,100236.22
2022-08-19T07:25:57.105Z,100236.31
2022-08-19T07:27:01.625Z,100238.08
2022-08-19T07:28:06.149Z,100244.53
2022-08-19T07:29:25.689Z,100242.69
2022-08-19T07:30:32.850Z,100241.63
2022-08-19T07:31:39.403Z,100244.95
2022-08-19T07:32:46.821Z,100255.46
2022-08-19T07:33:57.108Z,100255.05
2022-08-19T07:35:01.637Z,100254.53
2022-08-19T07:36:06.139Z,100251.19
2022-08-19T07:37:10.537Z,100259.2
2022-08-19T07:38:14.908Z,100256.81
2022-08-19T07:39:19.253Z,100259.53
2022-08-19T07:40:23.631Z,100254.13
2022-08-19T07:41:28.016Z,100259.94
2022-08-19T07:42:32.393Z,100259.31
2022-08-19T07:43:37.202Z,100262.41
2022-08-19T07:44:41.602Z,100259.93
2022-08-19T07:45:54.087Z,100262.02
2022-08-19T07:46:58.593Z,100256.41
2022-08-19T07:48:03.618Z,100244.55
2022-08-19T07:49:08.942Z,100247.25
2022-08-19T07:50:13.306Z,100245.77
2022-08-19T07:51:37.313Z,100241.59
2022-08-19T07:52:41.893Z,100242.27
2022-08-19T07:53:46.217Z,100240.8
2022-08-19T07:54:50.579Z,100245.39
2022-08-19T07:55:54.957Z,100248.48
2022-08-19T07:56:59.399Z,100246.94
2022-08-19T07:58:05.792Z,100244.22
2022-08-19T07:59:10.564Z,100244.66
2022-08-19T08:00:14.888Z,100244.66
2022-08-19T08:01:21.784Z,100241.94
2022-08-19T08:02:26.193Z,100238.58
2022-08-19T08:03:30.557Z,100241.27
2022-08-19T08:04:34.873Z,100247.61
2022-08-19T08:05:44.417Z,100246.26
2022-08-19T08:06:48.815Z,100239.2
2022-08-19T08:07:53.178Z,100235.23
2022-08-19T08:08:59.330Z,100240.36
2022-08-19T08:10:04.486Z,100240.23
2022-08-19T08:11:16.670Z,100239.09
2022-08-19T08:12:35.617Z,100231.38
2022-08-19T08:13:40.211Z,100233.16
2022-08-19T08:14:45.246Z,100234.72
2022-08-19T08:15:54.857Z,100232.42
2022-08-19T08:17:00.506Z,100239
2022-08-19T08:18:05.040Z,100235.88
2022-08-19T08:19:26.328Z,100232.33
2022-08-19T08:20:30.693Z,100241.27
2022-08-19T08:21:35.135Z,100252.34
2022-08-19T08:22:39.593Z,100246.7
2022-08-19T08:23:43.990Z,100248.27
2022-08-19T08:24:48.541Z,100243.78
2022-08-19T08:25:53.718Z,100245.67
2022-08-19T08:26:58.982Z,100242.84
2022-08-19T08:28:03.965Z,100248.13
2022-08-19T08:29:13.853Z,100243.66
2022-08-19T08:30:19.751Z,100245.13
2022-08-19T08:31:24.156Z,100250.72
2022-08-19T08:32:28.537Z,100254.68
2022-08-19T08:33:35.429Z,100254.8
2022-08-19T08:34:40.865Z,100262.47
2022-08-19T08:35:45.260Z,100257.37
2022-08-19T08:36:49.615Z,100259.98
2022-08-19T08:37:54.430Z,100272.05
2022-08-19T08:38:59.459Z,100260.63
2022-08-19T08:40:03.889Z,100263.73
2022-08-19T08:41:08.427Z,100268.63
2022-08-19T08:42:18.876Z,100276.42
2022-08-19T08:43:23.236Z,100266.84
2022-08-19T08:44:27.620Z,100270.84
2022-08-19T08:45:33.993Z,100267.17
2022-08-19T08:46:47.784Z,100264.04
2022-08-19T08:47:52.296Z,100270.91
2022-08-19T08:48:56.856Z,100273.31
2022-08-19T08:50:02.992Z,100272.67
2022-08-19T08:51:10.323Z,100271.34
2022-08-19T08:52:16.156Z,100269.23
2022-08-19T08:53:31.788Z,100271.86
2022-08-19T08:54:56.456Z,100258.01
2022-08-19T08:56:01.671Z,100263.53
2022-08-19T08:57:06.264Z,100258.61
2022-08-19T08:58:10.666Z,100257.36
2022-08-19T08:59:14.997Z,100256.92
2022-08-19T09:00:19.610Z,100264.97
2022-08-19T09:01:24.125Z,100261.44
2022-08-19T09:02:34.650Z,100264.56
2022-08-19T09:03:39.034Z,100259.77
2022-08-19T09:04:46.140Z,100259.77
2022-08-19T09:05:52.855Z,100262.86
2022-08-19T09:06:58.772Z,100262.43
2022-08-19T09:08:04.554Z,100260.57
2022-08-19T09:09:13.234Z,100271.91
2022-08-19T09:10:20.710Z,100273.05
2022-08-19T09:11:45.364Z,100265.66
2022-08-19T09:12:49.710Z,100269.09
2022-08-19T09:13:54.070Z,100265.56
2022-08-19T09:14:58.463Z,100262.22
2022-08-19T09:16:02.810Z,100263.23
2022-08-19T09:17:07.184Z,100259.39
2022-08-19T09:18:20.111Z,100274.58
2022-08-19T09:19:25.623Z,100268.53
2022-08-19T09:20:32.816Z,100264.24
2022-08-19T09:21:41.581Z,100264.14
2022-08-19T09:22:46.398Z,100264.55
2022-08-19T09:23:52.024Z,100258.02
2022-08-19T09:24:56.513Z,100257.94
2022-08-19T09:26:00.902Z,100255.64
2022-08-19T09:27:19.700Z,100250.4
2022-08-19T09:28:28.371Z,100255.81
2022-08-19T09:29:35.776Z,100248.44
2022-08-19T09:30:40.280Z,100250.61
2022-08-19T09:31:44.641Z,100241.36
2022-08-19T09:32:54.086Z,100249.91
2022-08-19T09:34:00.271Z,100249.68
2022-08-19T09:35:11.093Z,100243.64
2022-08-19T09:36:35.913Z,100246.02
2022-08-19T09:37:41.434Z,100244.97
2022-08-19T09:38:48.891Z,100242.67
2022-08-19T09:39:53.415Z,100239.02
2022-08-19T09:40:59.871Z,100238.1
2022-08-19T09:42:05.227Z,100241.12
2022-08-19T09:43:47.779Z,100251.52
2022-08-19T09:44:52.238Z,100252.97
2022-08-19T09:45:56.585Z,100251.64
2022-08-19T09:47:00.941Z,100248.5
2022-08-19T09:48:05.348Z,100256.31
2022-08-19T09:49:10.214Z,100256.39
2022-08-19T09:50:17.699Z,100254.81
2022-08-19T09:51:24.261Z,100253.11
2022-08-19T09:52:33.794Z,100255.63
2022-08-19T09:53:41.898Z,100250.89
2022-08-19T09:54:52.914Z,100251.02
2022-08-19T09:55:57.678Z,100248.23
2022-08-19T09:57:07.744Z,100239.38
2022-08-19T09:58:12.491Z,100237.41
2022-08-19T09:59:16.849Z,100246.16
2022-08-19T10:00:21.193Z,100244.48
2022-08-19T10:01:25.636Z,100237.98
2022-08-19T10:02:30.124Z,100241.77
2022-08-19T10:03:35.186Z,100238.33
2022-08-19T10:04:41.371Z,100246.04
2022-08-19T10:05:49.581Z,100245.84
2022-08-19T10:06:58.013Z,100252.5
2022-08-19T10:08:05.505Z,100248.94
2022-08-19T10:09:34.179Z,100243.42
2022-08-19T10:10:44.198Z,100238.22
2022-08-19T10:11:55.943Z,100237.47
2022-08-19T10:13:01.898Z,100228.53
2022-08-19T10:14:06.221Z,100221.34
2022-08-19T10:15:10.642Z,100218.23
2022-08-19T10:16:16.751Z,100205.33
2022-08-19T10:17:27.526Z,100213.97
2022-08-19T10:18:37.054Z,100208.34
2022-08-19T10:19:56.936Z,100206.45
2022-08-19T10:21:01.330Z,100207.13
2022-08-19T10:22:05.675Z,100210.31
2022-08-19T10:23:16.754Z,100210.64
2022-08-19T10:24:21.406Z,100209.72
2022-08-19T10:25:25.823Z,100211.31
2022-08-19T10:26:30.181Z,100206.45
2022-08-19T10:27:36.741Z,100207.09
2022-08-19T10:28:48.232Z,100210.3
2022-08-19T10:29:52.668Z,100201.06
2022-08-19T10:31:02.117Z,100207.93
2022-08-19T10:32:10.940Z,100199.6
2022-08-19T10:33:53.100Z,100205.25
2022-08-19T10:34:58.461Z,100200.95
2022-08-19T10:36:02.799Z,100200.14
2022-08-19T10:37:11.759Z,100204.4
2022-08-19T10:38:33.139Z,100206.19
2022-08-19T10:39:44.564Z,100205.98
2022-08-19T10:40:48.991Z,100203.48
2022-08-19T10:41:53.355Z,100210.14
2022-08-19T10:42:57.723Z,100219.72
2022-08-19T10:44:05.597Z,100225.58
2022-08-19T10:45:09.963Z,100217.45
2022-08-19T10:46:17.414Z,100219.62
2022-08-19T10:47:31.683Z,100220.36
2022-08-19T10:48:36.282Z,100222.66
2022-08-19T10:49:40.750Z,100233.98
2022-08-19T10:50:45.126Z,100226.51
2022-08-19T10:51:49.683Z,100223.8
2022-08-19T10:52:57.348Z,100221.5
2022-08-19T10:54:01.755Z,100224.84
2022-08-19T10:55:10.203Z,100226.61
2022-08-19T10:56:14.583Z,100230.47
2022-08-19T10:57:18.958Z,100229.31
2022-08-19T10:58:23.332Z,100222.98
2022-08-19T10:59:28.581Z,100221.73
2022-08-19T11:00:39.379Z,100221.5
2022-08-19T11:01:44.531Z,100222.45
2022-08-19T11:02:48.887Z,100222.86
2022-08-19T11:03:53.300Z,100217.27
2022-08-19T11:05:03.080Z,100222.78
2022-08-19T11:06:17.038Z,100220.7
2022-08-19T11:07:21.398Z,100227.66
2022-08-19T11:08:25.756Z,100231.3
2022-08-19T11:09:35.225Z,100222.47
2022-08-19T11:10:39.576Z,100223.19
2022-08-19T11:11:43.951Z,100221.02
2022-08-19T11:12:49.295Z,100222.88
2022-08-19T11:13:53.735Z,100222.38
2022-08-19T11:14:58.088Z,100221.02
2022-08-19T11:16:08.290Z,100222.57
2022-08-19T11:17:12.673Z,100222.98
2022-08-19T11:18:17.040Z,100218.1
2022-08-19T11:19:21.404Z,100221.22
2022-08-19T11:20:25.786Z,100216.84
2022-08-19T11:21:30.155Z,100212.69
2022-08-19T11:22:42.235Z,100225.68
2022-08-19T11:23:46.877Z,100225.99
2022-08-19T11:24:51.228Z,100223.92
2022-08-19T11:25:55.588Z,100225.68
2022-08-19T11:26:59.945Z,100227.88
2022-08-19T11:28:04.290Z,100230.59
2022-08-19T11:29:08.633Z,100227.98
2022-08-19T11:30:14.205Z,100230.18
2022-08-19T11:31:18.641Z,100223.92
2022-08-19T11:32:23.000Z,100236.95
2022-08-19T11:33:27.354Z,100226.94
2022-08-19T11:34:31.733Z,100229.95
2022-08-19T11:35:36.071Z,100227.88
2022-08-19T11:36:40.471Z,100231.09
2022-08-19T11:37:44.846Z,100231.41
2022-08-19T11:38:49.197Z,100238.07
2022-08-19T11:39:54.886Z,100231.53
2022-08-19T11:40:59.398Z,100228.92
2022-08-19T11:42:03.769Z,100224.23
2022-08-19T11:43:08.188Z,100230.28
2022-08-19T11:44:12.524Z,100237.25
2022-08-19T11:45:16.877Z,100242.67
2022-08-19T11:46:21.245Z,100240.27
2022-08-19T11:47:25.581Z,100241.72
2022-08-19T11:48:31.242Z,100239.11
2022-08-19T11:49:35.569Z,100240.16
2022-08-19T11:50:40.276Z,100240.7
2022-08-19T11:51:45.274Z,100235.28
2022-08-19T11:52:49.631Z,100237.55
2022-08-19T11:53:54.041Z,100236.95
2022-08-19T11:54:58.388Z,100238.41
2022-08-19T11:56:02.798Z,100238.48
2022-08-19T11:57:07.168Z,100234.11
2022-08-19T11:58:20.100Z,100242.23
2022-08-19T11:59:24.478Z,100238.7
2022-08-19T12:00:28.820Z,100236.1
2022-08-19T12:01:33.219Z,100242.87
2022-08-19T12:02:37.576Z,100237.36
2022-08-19T12:03:42.055Z,100238.3
2022-08-19T12:04:46.521Z,100237.36
2022-08-19T12:05:50.882Z,100236.1
2022-08-19T12:06:55.254Z,100237.86
2022-08-19T12:07:59.628Z,100236
2022-08-19T12:09:03.996Z,100236.31
2022-08-19T12:10:09.418Z,100242.98
2022-08-19T12:11:15.136Z,100246.29
2022-08-19T12:12:19.490Z,100243.17
2022-08-19T12:13:23.851Z,100233.6
2022-08-19T12:14:28.202Z,100232.76
2022-08-19T12:15:38.309Z,100236.31
2022-08-19T12:16:52.251Z,100236.72
2022-08-19T12:17:58.089Z,100239.23
2022-08-19T12:19:02.459Z,100237.03
2022-08-19T12:20:06.822Z,100238.79
2022-08-19T12:21:11.219Z,100248.16
2022-08-19T12:22:15.579Z,100246.17
2022-08-19T12:23:19.948Z,100243.77
2022-08-19T12:24:24.533Z,100252.51
2022-08-19T12:25:29.037Z,100247
2022-08-19T12:26:33.571Z,100257.63
2022-08-19T12:27:59.214Z,100257.39
2022-08-19T12:29:04.220Z,100254.05
2022-08-19T12:30:08.628Z,100255.81
2022-08-19T12:31:13.022Z,100258.42
2022-08-19T12:32:17.430Z,100256.66
2022-08-19T12:33:21.802Z,100266.44
2022-08-19T12:34:26.160Z,100258.22
2022-08-19T12:35:30.514Z,100258.63
2022-08-19T12:36:36.408Z,100259.45
2022-08-19T12:37:40.741Z,100260.29
2022-08-19T12:38:45.123Z,100266.83
2022-08-19T12:39:49.649Z,100262.77
2022-08-19T12:41:00.247Z,100261.41